Time;durP1;ratioP1;P1;durP2;ratioP2;P2;SDS_P1;SDS_P2;PMS_P1;PMS_P2;Temp;Humidity;BMP_temperature;BMP_pressure;BME280_temperature;BME280_humidity;BME280_pressure;Samples;Min_cycle;Max_cycle;Signal;HPM_P1;HPM_P2
2022/12/25 00:01:37;;;;;;;1.63;1.53;;;;;;;9.75;100.00;100369.50;5027166;28;20448;-56
2022/12/25 00:04:04;;;;;;;9.63;1.10;;;;;;;9.79;100.00;100362.31;5023424;28;20458;-55
2022/12/25 00:06:30;;;;;;;11.77;1.30;;;;;;;9.72;100.00;100358.06;5019459;28;20490;-54
2022/12/25 00:08:57;;;;;;;2.43;2.33;;;;;;;9.63;100.00;100351.22;5033069;28;20471;-56
2022/12/25 00:11:23;;;;;;;14.43;1.97;;;;;;;9.64;100.00;100347.66;5019870;28;20448;-55
2022/12/25 00:13:50;;;;;;;14.23;2.37;;;;;;;9.60;100.00;100343.31;5026416;28;20509;-56
2022/12/25 00:16:19;;;;;;;26.93;2.13;;;;;;;9.71;100.00;100337.72;5046690;28;20444;-56
2022/12/25 00:18:46;;;;;;;3.83;2.03;;;;;;;9.75;100.00;100327.03;5004848;28;20500;-56
2022/12/25 00:21:13;;;;;;;8.63;2.87;;;;;;;9.79;100.00;100322.50;5029978;28;20452;-55
2022/12/25 00:23:40;;;;;;;10.40;2.37;;;;;;;9.75;100.00;100321.72;5022143;28;20453;-56
2022/12/25 00:26:09;;;;;;;11.33;2.10;;;;;;;9.80;100.00;100318.94;5026407;28;20860;-55
2022/12/25 00:28:37;;;;;;;0.90;0.80;;;;;;;9.83;100.00;100312.69;5024516;28;20496;-56
2022/12/25 00:31:05;;;;;;;3.63;1.70;;;;;;;9.79;100.00;100326.03;5019545;28;20459;-55
2022/12/25 00:33:34;;;;;;;19.17;2.30;;;;;;;9.83;100.00;100325.94;5020948;28;20531;-55
2022/12/25 00:36:01;;;;;;;5.50;2.07;;;;;;;9.76;100.00;100328.78;5026132;28;20532;-55
2022/12/25 00:38:28;;;;;;;10.83;1.20;;;;;;;9.77;100.00;100340.25;5029088;28;20529;-55
2022/12/25 00:40:54;;;;;;;1.90;1.80;;;;;;;9.80;100.00;100335.75;5019467;28;20444;-55
2022/12/25 00:43:21;;;;;;;1.40;1.23;;;;;;;9.76;100.00;100339.38;5019990;28;20455;-56
2022/12/25 00:45:56;;;;;;;5.10;2.10;;;;;;;9.76;100.00;100334.06;5025914;28;20496;-55
2022/12/25 00:48:24;;;;;;;1.00;0.90;;;;;;;9.69;100.00;100340.44;5025936;28;20861;-55
2022/12/25 00:50:58;;;;;;;14.50;2.40;;;;;;;9.57;100.00;100337.19;5020647;28;20451;-54
2022/12/25 00:53:26;;;;;;;1.33;1.23;;;;;;;9.62;100.00;100343.28;5019160;28;20478;-55
2022/12/25 00:56:01;;;;;;;2.63;2.30;;;;;;;9.63;100.00;100342.38;5023695;28;20464;-54
2022/12/25 00:58:29;;;;;;;0.90;0.90;;;;;;;9.71;100.00;100343.03;5025882;28;20543;-53
2022/12/25 01:00:56;;;;;;;4.93;1.80;;;;;;;9.78;100.00;100356.16;5023250;28;20555;-55
2022/12/25 01:03:23;;;;;;;5.77;2.73;;;;;;;9.79;100.00;100357.88;5019136;28;20827;-55
2022/12/25 01:05:58;;;;;;;0.87;0.87;;;;;;;9.77;100.00;100349.09;5021933;28;20449;-55
2022/12/25 01:08:27;;;;;;;13.63;1.63;;;;;;;9.75;100.00;100352.69;5031229;28;20471;-55
2022/12/25 01:10:55;;;;;;;12.50;2.50;;;;;;;9.70;100.00;100352.78;5020055;28;20452;-55
2022/12/25 01:13:21;;;;;;;1.43;1.33;;;;;;;9.67;100.00;100355.53;5025769;28;20455;-55
2022/12/25 01:15:50;;;;;;;2.90;1.70;;;;;;;9.56;100.00;100352.25;5044958;28;20443;-55
2022/12/25 01:18:18;;;;;;;3.90;1.40;;;;;;;9.57;100.00;100353.13;5019609;28;20453;-55
2022/12/25 01:20:44;;;;;;;2.67;2.20;;;;;;;9.66;100.00;100355.56;5019209;28;20455;-54
2022/12/25 01:23:11;;;;;;;4.60;1.43;;;;;;;9.76;100.00;100344.69;5019691;28;20542;-54
2022/12/25 01:25:37;;;;;;;10.83;1.20;;;;;;;9.77;100.00;100351.75;5019425;28;20449;-55
2022/12/25 01:28:04;;;;;;;8.50;2.20;;;;;;;9.80;100.00;100343.69;5024811;28;20878;-55
2022/12/25 01:30:31;;;;;;;2.57;2.30;;;;;;;9.88;100.00;100351.50;5025781;28;20459;-55
2022/12/25 01:32:58;;;;;;;17.57;3.30;;;;;;;9.90;100.00;100351.44;5020006;28;20542;-55
2022/12/25 01:35:24;;;;;;;2.43;2.23;;;;;;;9.93;100.00;100336.31;5020096;28;20448;-55
2022/12/25 01:37:51;;;;;;;3.37;1.80;;;;;;;9.86;100.00;100337.34;5036153;28;20454;-55
2022/12/25 01:40:18;;;;;;;4.67;3.00;;;;;;;10.00;100.00;100344.97;5022520;28;20476;-54
2022/12/25 01:42:44;;;;;;;5.13;3.00;;;;;;;10.01;100.00;100346.75;5027889;28;20452;-54
2022/12/25 01:45:32;;;;;;;2.30;1.47;;;;;;;10.02;100.00;100345.84;5029301;28;20448;-57
2022/12/25 01:48:07;;;;;;;7.50;3.10;;;;;;;10.04;100.00;100346.66;5009829;28;20991;-56
2022/12/25 01:50:34;;;;;;;1.87;1.77;;;;;;;10.07;100.00;100349.22;5022546;28;20443;-55
2022/12/25 01:53:01;;;;;;;5.30;2.00;;;;;;;10.12;100.00;100344.66;5023139;28;20448;-55
2022/12/25 01:55:28;;;;;;;1.33;0.97;;;;;;;10.14;100.00;100332.22;5029729;28;20452;-55
2022/12/25 01:57:55;;;;;;;19.40;2.47;;;;;;;10.17;100.00;100315.34;5028850;28;20828;-55
2022/12/25 02:00:22;;;;;;;2.27;2.07;;;;;;;10.14;100.00;100316.28;5022545;28;20493;-56
2022/12/25 02:02:48;;;;;;;1.03;0.93;;;;;;;10.22;100.00;100318.78;5022818;28;20464;-55
2022/12/25 02:05:24;;;;;;;1.47;0.57;;;;;;;10.18;100.00;100315.31;5029196;28;20928;-55
2022/12/25 02:07:51;;;;;;;4.63;1.57;;;;;;;10.18;100.00;100317.97;5030494;28;20570;-55
2022/12/25 02:10:18;;;;;;;1.10;1.00;;;;;;;10.22;100.00;100326.75;5027652;28;20483;-55
2022/12/25 02:12:46;;;;;;;1.97;1.70;;;;;;;10.23;100.00;100328.47;5029189;28;20447;-56
2022/12/25 02:15:17;;;;;;;1.77;1.67;;;;;;;10.22;100.00;100317.00;5038577;28;20934;-56
2022/12/25 02:17:49;;;;;;;9.30;1.60;;;;;;;10.19;100.00;100302.91;5037474;28;20554;-56
2022/12/25 02:20:21;;;;;;;5.70;1.90;;;;;;;10.31;100.00;100308.78;5025045;28;20479;-56
2022/12/25 02:23:04;;;;;;;7.90;2.07;;;;;;;10.27;100.00;100307.09;5031109;28;20463;-56
2022/12/25 02:25:42;;;;;;;2.77;1.90;;;;;;;10.29;100.00;100315.06;5028215;28;20530;-55
2022/12/25 02:28:12;;;;;;;2.20;1.00;;;;;;;10.25;100.00;100313.38;5027513;28;20492;-55
2022/12/25 02:30:45;;;;;;;1.00;1.00;;;;;;;10.28;100.00;100318.59;5028662;28;20463;-56
2022/12/25 02:36:17;;;;;;;1.73;0.77;;;;;;;10.23;100.00;100315.19;5022632;28;20424;-54
2022/12/25 02:41:38;;;;;;;18.73;2.57;;;;;;;10.03;100.00;100308.63;5026538;28;20450;-55
2022/12/25 03:07:17;;;;;;;0.67;0.67;;;;;;;9.67;100.00;100299.78;5031137;28;21013;-55
2022/12/25 03:12:49;;;;;;;4.23;2.13;;;;;;;9.65;100.00;100295.44;5028806;28;20454;-55
2022/12/25 03:18:07;;;;;;;33.07;1.13;;;;;;;9.63;100.00;100292.81;5030599;28;20540;-54
2022/12/25 03:28:55;;;;;;;0.60;0.60;;;;;;;9.72;100.00;100300.53;5020732;28;20473;-55
2022/12/25 03:31:39;;;;;;;0.77;0.77;;;;;;;9.79;100.00;100291.53;5026200;28;20543;-55
2022/12/25 03:37:31;;;;;;;0.60;0.60;;;;;;;9.93;100.00;100285.00;5028862;28;20848;-54
2022/12/25 04:36:10;;;;;;;8.67;3.40;;;;;;;9.96;100.00;100259.22;5026345;28;20866;-56
2022/12/25 04:38:38;;;;;;;1.70;1.60;;;;;;;9.97;100.00;100260.09;5029232;28;20471;-56
2022/12/25 04:41:05;;;;;;;7.53;2.67;;;;;;;10.01;100.00;100257.34;5020844;28;20506;-56
2022/12/25 04:43:31;;;;;;;1.50;1.40;;;;;;;9.94;100.00;100262.84;5019481;28;20555;-55
2022/12/25 04:45:59;;;;;;;1.77;1.37;;;;;;;9.93;100.00;100261.97;5024573;28;20453;-54
2022/12/25 04:48:27;;;;;;;11.93;3.07;;;;;;;9.92;100.00;100267.31;5026198;28;20903;-56
2022/12/25 04:50:54;;;;;;;0.70;0.67;;;;;;;9.87;100.00;100254.16;5021304;28;20960;-54
2022/12/25 04:53:20;;;;;;;1.37;1.23;;;;;;;9.78;100.00;100251.75;5019426;28;20547;-55
2022/12/25 04:55:47;;;;;;;1.83;1.40;;;;;;;9.86;100.00;100247.09;5023733;28;20491;-55
2022/12/25 04:58:13;;;;;;;0.90;0.90;;;;;;;9.89;100.00;100240.84;5025802;28;20469;-55
2022/12/25 05:00:40;;;;;;;8.00;2.27;;;;;;;9.85;100.00;100247.13;5021570;28;20456;-55
2022/12/25 05:03:06;;;;;;;3.60;2.83;;;;;;;9.84;100.00;100242.75;5018993;28;20458;-54
2022/12/25 05:05:33;;;;;;;2.77;2.10;;;;;;;9.88;100.00;100242.63;5023487;28;20455;-55
2022/12/25 05:07:59;;;;;;;1.30;1.20;;;;;;;9.62;100.00;100239.78;5027891;28;20587;-55
2022/12/25 05:10:26;;;;;;;7.10;2.40;;;;;;;9.61;100.00;100251.31;5022865;28;20476;-56
2022/12/25 05:12:52;;;;;;;1.83;1.73;;;;;;;9.49;100.00;100242.75;5025691;28;20455;-55
2022/12/25 05:15:18;;;;;;;2.70;2.13;;;;;;;9.48;100.00;100234.81;5037215;28;20454;-55
2022/12/25 05:17:45;;;;;;;3.13;2.83;;;;;;;9.50;100.00;100233.88;5033309;28;20452;-54
2022/12/25 05:20:11;;;;;;;1.97;1.87;;;;;;;9.60;100.00;100237.19;5022266;28;20468;-55
2022/12/25 05:22:38;;;;;;;1.70;1.53;;;;;;;9.68;100.00;100226.34;5010939;28;20452;-51
2022/12/25 05:25:05;;;;;;;5.90;1.70;;;;;;;9.51;100.00;100224.13;5022411;28;20808;-51
2022/12/25 05:27:31;;;;;;;5.00;1.70;;;;;;;9.52;100.00;100228.53;5018741;28;20490;-51
2022/12/25 05:29:58;;;;;;;2.70;2.50;;;;;;;9.61;100.00;100235.41;5022323;28;20472;-51
2022/12/25 05:32:24;;;;;;;2.90;2.70;;;;;;;9.57;100.00;100241.66;5025662;28;20459;-51
2022/12/25 05:34:50;;;;;;;2.43;1.90;;;;;;;9.54;100.00;100231.13;5022115;28;20857;-51
2022/12/25 05:37:17;;;;;;;13.90;2.50;;;;;;;9.63;100.00;100236.22;5021804;28;20444;-52
2022/12/25 05:39:43;;;;;;;5.17;2.90;;;;;;;9.77;100.00;100248.22;5021942;28;20484;-51
2022/12/25 05:42:09;;;;;;;12.10;3.47;;;;;;;9.85;100.00;100248.00;5025322;28;20531;-51
2022/12/25 05:44:36;;;;;;;2.03;1.90;;;;;;;9.87;100.00;100251.53;5022453;28;20447;-52
2022/12/25 05:47:02;;;;;;;2.13;1.23;;;;;;;9.93;100.00;100253.13;5018785;28;20513;-51
2022/12/25 05:49:29;;;;;;;2.00;1.80;;;;;;;10.01;100.00;100252.03;5021388;28;20469;-52
2022/12/25 05:51:55;;;;;;;1.40;1.30;;;;;;;10.06;100.00;100247.44;5025325;28;20459;-52
2022/12/25 05:54:22;;;;;;;2.80;1.30;;;;;;;10.05;100.00;100242.19;5022696;28;20451;-53
2022/12/25 05:56:48;;;;;;;1.63;1.53;;;;;;;10.08;100.00;100236.78;5018508;28;20430;-52
2022/12/25 05:59:14;;;;;;;1.03;1.00;;;;;;;9.87;100.00;100226.72;5021579;28;20524;-52
2022/12/25 06:01:41;;;;;;;2.13;1.97;;;;;;;10.05;100.00;100224.47;5025177;28;20822;-52
2022/12/25 06:04:07;;;;;;;2.43;2.33;;;;;;;10.01;100.00;100220.16;5005379;28;20456;-52
2022/12/25 06:06:38;;;;;;;7.13;3.23;;;;;;;9.96;100.00;100211.41;5018647;28;20455;-52
2022/12/25 06:09:04;;;;;;;1.60;1.50;;;;;;;9.95;100.00;100211.47;5031556;28;20522;-52
2022/12/25 06:11:31;;;;;;;1.73;1.63;;;;;;;9.88;100.00;100209.91;5018322;28;20949;-53
2022/12/25 06:13:57;;;;;;;1.67;1.57;;;;;;;10.09;100.00;100215.47;5024718;28;20454;-52
2022/12/25 06:16:24;;;;;;;4.17;3.17;;;;;;;10.14;100.00;100206.50;5044840;28;20448;-53
2022/12/25 06:18:51;;;;;;;2.40;2.30;;;;;;;10.15;100.00;100211.81;5020340;28;20981;-51
2022/12/25 06:21:17;;;;;;;1.83;1.53;;;;;;;10.04;100.00;100206.78;5030174;28;20451;-53
2022/12/25 06:23:44;;;;;;;2.63;2.43;;;;;;;10.10;100.00;100197.75;5023652;28;20460;-51
2022/12/25 06:26:14;;;;;;;3.13;2.93;;;;;;;10.27;100.00;100198.19;5029029;28;20444;-51
2022/12/25 06:28:41;;;;;;;7.93;2.50;;;;;;;10.17;100.00;100199.34;5027840;28;20502;-52
2022/12/25 06:31:16;;;;;;;1.80;1.70;;;;;;;10.12;100.00;100213.66;5022184;28;20457;-52
2022/12/25 06:33:43;;;;;;;3.30;3.10;;;;;;;10.24;100.00;100213.34;5022269;28;20455;-51
2022/12/25 06:36:13;;;;;;;4.43;2.17;;;;;;;10.22;100.00;100215.19;5028110;28;20942;-51
2022/12/25 06:38:40;;;;;;;2.43;2.33;;;;;;;10.18;100.00;100217.03;5032468;28;20475;-52
2022/12/25 06:41:09;;;;;;;4.43;2.20;;;;;;;10.31;100.00;100210.47;5023190;28;20444;-51
2022/12/25 06:43:36;;;;;;;7.30;3.17;;;;;;;10.32;100.00;100214.88;5021815;28;20449;-51
2022/12/25 06:46:11;;;;;;;2.20;2.00;;;;;;;10.32;100.00;100221.97;5009153;28;20507;-52
2022/12/25 06:48:39;;;;;;;1.80;1.70;;;;;;;10.31;100.00;100218.44;5028050;28;20501;-53
2022/12/25 06:51:06;;;;;;;2.40;2.20;;;;;;;10.27;100.00;100226.53;5025493;28;20456;-51
2022/12/25 06:53:33;;;;;;;6.23;2.50;;;;;;;10.23;100.00;100231.06;5021692;28;20517;-51
2022/12/25 06:56:14;;;;;;;7.70;2.23;;;;;;;10.17;100.00;100236.53;5023612;28;20445;-51
2022/12/25 06:58:45;;;;;;;3.40;3.10;;;;;;;10.14;100.00;100241.91;5027997;28;20467;-51
2022/12/25 07:01:29;;;;;;;9.93;2.30;;;;;;;10.13;100.00;100242.81;5027996;28;20945;-51
2022/12/25 07:03:58;;;;;;;3.60;3.00;;;;;;;10.14;100.00;100233.94;5024151;28;20889;-51
2022/12/25 07:06:25;;;;;;;10.97;3.50;;;;;;;10.11;100.00;100218.09;5021405;28;20451;-51
2022/12/25 07:08:52;;;;;;;4.33;2.83;;;;;;;10.05;100.00;100207.66;5034372;28;20580;-52
2022/12/25 07:11:18;;;;;;;2.20;1.60;;;;;;;9.94;100.00;100196.44;5021228;28;20456;-51
2022/12/25 07:13:45;;;;;;;5.43;2.13;;;;;;;9.92;100.00;100193.84;5027029;28;20448;-52
2022/12/25 07:16:12;;;;;;;2.07;1.90;;;;;;;10.00;100.00;100191.81;5047766;28;20510;-51
2022/12/25 07:18:40;;;;;;;2.10;1.67;;;;;;;9.90;100.00;100197.47;5024506;28;20473;-52
2022/12/25 07:21:12;;;;;;;13.23;2.10;;;;;;;9.80;100.00;100194.19;5030788;28;20456;-51
2022/12/25 07:23:38;;;;;;;8.73;2.63;;;;;;;9.88;100.00;100193.97;5023221;28;20490;-51
2022/12/25 07:26:05;;;;;;;9.70;2.40;;;;;;;9.89;100.00;100190.41;5027639;28;20873;-52
2022/12/25 07:28:32;;;;;;;2.03;1.93;;;;;;;10.00;100.00;100188.31;5025307;28;20466;-52
2022/12/25 07:31:00;;;;;;;7.33;1.83;;;;;;;9.84;100.00;100185.19;5020650;28;20452;-51
2022/12/25 07:33:27;;;;;;;12.70;3.00;;;;;;;9.81;100.00;100174.69;5021902;28;20456;-52
2022/12/25 07:35:53;;;;;;;2.20;2.00;;;;;;;9.80;100.00;100184.44;5027452;28;20981;-51
2022/12/25 07:38:20;;;;;;;2.33;1.93;;;;;;;9.76;100.00;100192.53;5029104;28;20455;-52
2022/12/25 07:40:47;;;;;;;2.13;1.30;;;;;;;9.95;100.00;100200.84;5020559;28;20553;-51
2022/12/25 07:43:13;;;;;;;1.50;1.20;;;;;;;10.01;100.00;100201.56;5022223;28;20939;-52
2022/12/25 07:45:39;;;;;;;6.80;3.03;;;;;;;10.11;100.00;100186.22;5027292;28;20449;-51
2022/12/25 07:48:06;;;;;;;3.90;3.00;;;;;;;10.17;100.00;100182.53;5026017;28;20488;-52
2022/12/25 07:50:40;;;;;;;1.77;1.67;;;;;;;10.21;100.00;100202.78;5020521;28;20474;-51
2022/12/25 07:53:07;;;;;;;4.47;3.60;;;;;;;10.28;100.00;100207.91;5020789;28;20820;-52
2022/12/25 07:55:33;;;;;;;5.33;2.57;;;;;;;10.26;100.00;100192.91;5027174;28;20830;-52
2022/12/25 07:57:59;;;;;;;2.70;2.50;;;;;;;10.18;100.00;100182.50;5026882;28;20519;-51
2022/12/25 08:00:31;;;;;;;1.80;1.70;;;;;;;10.13;100.00;100171.09;5020352;28;20453;-51
2022/12/25 08:02:58;;;;;;;2.00;1.90;;;;;;;10.22;100.00;100162.91;5020417;28;20495;-52
2022/12/25 08:05:25;;;;;;;1.90;1.80;;;;;;;10.13;100.00;100163.16;5026384;28;20459;-52
2022/12/25 08:07:54;;;;;;;1.67;1.57;;;;;;;10.26;100.00;100167.22;5027460;28;20491;-51
2022/12/25 08:10:23;;;;;;;2.60;2.50;;;;;;;10.49;100.00;100169.19;5025387;28;20471;-51
2022/12/25 08:12:50;;;;;;;4.00;3.27;;;;;;;10.48;100.00;100166.59;5026972;28;20452;-52
2022/12/25 08:15:17;;;;;;;2.10;1.90;;;;;;;10.43;100.00;100165.88;5037610;28;20447;-54
2022/12/25 08:17:43;;;;;;;12.53;3.57;;;;;;;10.53;100.00;100169.97;5035193;28;20526;-52
2022/12/25 08:20:10;;;;;;;3.90;2.10;;;;;;;10.53;100.00;100164.66;5022307;28;20463;-52
2022/12/25 08:22:36;;;;;;;2.77;2.40;;;;;;;10.51;100.00;100161.19;5030100;28;20921;-52
2022/12/25 08:25:03;;;;;;;4.33;2.00;;;;;;;10.53;100.00;100168.19;5022212;28;20466;-52
2022/12/25 08:27:30;;;;;;;7.50;3.57;;;;;;;10.57;100.00;100155.69;5019644;28;20449;-52
2022/12/25 08:29:56;;;;;;;9.83;1.70;;;;;;;10.69;100.00;100152.66;5024215;28;20551;-52
2022/12/25 08:32:23;;;;;;;2.17;1.73;;;;;;;10.67;100.00;100157.13;5026368;28;20448;-52
2022/12/25 08:34:49;;;;;;;1.90;1.80;;;;;;;10.69;100.00;100173.94;5022091;28;20426;-52
2022/12/25 08:37:15;;;;;;;2.00;1.90;;;;;;;10.68;100.00;100183.66;5023428;28;20455;-52
2022/12/25 08:39:42;;;;;;;1.97;1.77;;;;;;;10.68;100.00;100177.47;5023837;28;20485;-52
2022/12/25 08:42:08;;;;;;;1.53;1.00;;;;;;;10.58;100.00;100170.72;5026124;28;20831;-53
2022/12/25 08:44:35;;;;;;;1.70;1.50;;;;;;;10.65;100.00;100175.78;5022069;28;20539;-52
2022/12/25 08:47:01;;;;;;;1.00;0.90;;;;;;;10.62;100.00;100169.69;5019493;28;20460;-52
2022/12/25 08:49:27;;;;;;;2.27;2.07;;;;;;;10.72;100.00;100176.47;5023223;28;20499;-52
2022/12/25 08:51:54;;;;;;;3.03;1.53;;;;;;;10.75;100.00;100179.03;5025836;28;20484;-52
2022/12/25 08:54:21;;;;;;;2.10;1.97;;;;;;;10.68;100.00;100169.50;5022460;28;20454;-52
2022/12/25 08:56:47;;;;;;;3.33;2.93;;;;;;;10.60;100.00;100166.22;5016328;28;20808;-53
2022/12/25 08:59:13;;;;;;;2.30;2.20;;;;;;;10.37;100.00;100173.09;5022609;28;20464;-52
2022/12/25 09:01:40;;;;;;;3.30;2.80;;;;;;;10.36;100.00;100165.16;5018979;28;20451;-52
2022/12/25 09:04:06;;;;;;;10.00;2.50;;;;;;;10.28;100.00;100170.72;5022708;28;20453;-51
2022/12/25 09:06:33;;;;;;;3.00;2.77;;;;;;;10.36;100.00;100168.69;5026585;28;20445;-52
2022/12/25 09:08:59;;;;;;;2.17;2.07;;;;;;;10.26;100.00;100169.00;5032508;28;20510;-52
2022/12/25 09:11:26;;;;;;;2.23;2.03;;;;;;;10.23;100.00;100164.66;5019151;28;20830;-53
2022/12/25 09:13:52;;;;;;;3.73;2.13;;;;;;;10.20;100.00;100171.81;5025847;28;20506;-54
2022/12/25 09:16:20;;;;;;;10.30;3.13;;;;;;;10.15;100.00;100179.06;5045741;28;20444;-52
2022/12/25 09:18:47;;;;;;;2.20;1.80;;;;;;;10.25;100.00;100168.13;5021393;28;20472;-52
2022/12/25 09:21:15;;;;;;;2.50;2.40;;;;;;;10.42;100.00;100174.75;5029386;28;20535;-52
2022/12/25 09:23:41;;;;;;;3.07;2.97;;;;;;;10.32;100.00;100169.72;5021243;28;20452;-52
2022/12/25 09:26:11;;;;;;;7.70;4.87;;;;;;;10.47;100.00;100164.84;5025634;28;20487;-53
2022/12/25 09:28:38;;;;;;;11.20;3.90;;;;;;;10.46;100.00;100153.34;5024269;28;20491;-52
2022/12/25 09:31:09;;;;;;;3.80;3.50;;;;;;;10.38;100.00;100160.69;5018548;28;20444;-53
2022/12/25 09:33:35;;;;;;;19.83;4.60;;;;;;;10.32;100.00;100148.47;5019876;28;20461;-52
2022/12/25 09:36:05;;;;;;;8.70;5.23;;;;;;;10.30;100.00;100133.50;5025780;28;20459;-52
2022/12/25 09:38:33;;;;;;;3.87;3.63;;;;;;;10.31;100.00;100135.22;5028471;28;20845;-52
2022/12/25 09:41:07;;;;;;;5.97;5.47;;;;;;;10.52;100.00;100131.03;5019134;28;20802;-52
2022/12/25 09:43:45;;;;;;;18.97;5.97;;;;;;;10.43;100.00;100124.22;5018450;28;20455;-52
2022/12/25 09:46:19;;;;;;;7.80;4.97;;;;;;;10.43;100.00;100118.91;5022649;28;21241;-52
2022/12/25 09:49:11;;;;;;;8.80;6.40;;;;;;;10.47;100.00;100109.06;5025388;28;20496;-53
2022/12/25 09:51:42;;;;;;;6.43;4.23;;;;;;;10.56;100.00;100109.66;5025359;28;20543;-53
2022/12/25 09:54:17;;;;;;;18.50;6.43;;;;;;;10.52;100.00;100104.44;5020414;28;20534;-53
2022/12/25 09:56:44;;;;;;;6.97;4.10;;;;;;;10.63;100.00;100111.16;5020664;28;20428;-53
2022/12/25 09:59:25;;;;;;;11.63;3.57;;;;;;;10.71;100.00;100105.63;5026132;28;20468;-52
2022/12/25 10:02:17;;;;;;;4.10;3.90;;;;;;;11.25;100.00;100113.56;5029304;28;20448;-55
2022/12/25 10:05:02;;;;;;;2.63;2.00;;;;;;;11.27;100.00;100117.03;4997007;28;20447;-54
2022/12/25 10:08:21;;;;;;;2.97;2.87;;;;;;;10.96;100.00;100124.28;5027521;28;20674;-53
2022/12/25 10:10:52;;;;;;;19.87;4.60;;;;;;;10.87;100.00;100120.16;4982786;28;20579;-54
2022/12/25 10:13:40;;;;;;;7.60;2.47;;;;;;;11.03;100.00;100123.19;5029372;28;20452;-53
2022/12/25 10:16:45;;;;;;;5.50;3.10;;;;;;;11.22;100.00;100121.63;5044626;28;20446;-53
2022/12/25 10:19:52;;;;;;;3.13;2.93;;;;;;;11.09;100.00;100130.06;4968882;28;20474;-53
2022/12/25 10:22:28;;;;;;;3.10;2.90;;;;;;;11.06;100.00;100130.19;4923911;28;20450;-54
2022/12/25 10:24:58;;;;;;;2.40;2.30;;;;;;;11.16;100.00;100126.31;5024341;28;20451;-53
2022/12/25 10:27:36;;;;;;;2.63;2.43;;;;;;;11.43;100.00;100116.50;5015646;28;20451;-54
2022/12/25 10:30:14;;;;;;;2.07;1.87;;;;;;;11.61;100.00;100120.31;5025875;28;20503;-54
2022/12/25 10:32:42;;;;;;;2.80;2.60;;;;;;;11.54;100.00;100119.66;5021687;28;20487;-53
2022/12/25 10:35:17;;;;;;;4.50;2.93;;;;;;;11.44;100.00;100111.13;5022934;28;20458;-54
2022/12/25 10:37:53;;;;;;;3.67;3.47;;;;;;;11.25;100.00;100102.06;5025443;28;20481;-54
2022/12/25 10:40:27;;;;;;;1.43;1.33;;;;;;;11.27;100.00;100094.88;5021454;28;20551;-54
2022/12/25 10:43:02;;;;;;;3.93;2.83;;;;;;;11.23;100.00;100095.91;5026037;28;20444;-54
2022/12/25 10:45:29;;;;;;;2.53;2.33;;;;;;;11.27;100.00;100101.06;5028423;28;20447;-54
2022/12/25 10:48:05;;;;;;;9.53;3.33;;;;;;;11.26;100.00;100085.16;5025841;28;20456;-54
2022/12/25 10:50:40;;;;;;;7.73;4.17;;;;;;;11.44;100.00;100095.16;5021440;28;20447;-54
2022/12/25 10:53:17;;;;;;;13.97;3.97;;;;;;;11.44;100.00;100088.97;5021708;28;20455;-55
2022/12/25 10:55:59;;;;;;;8.03;2.80;;;;;;;11.40;100.00;100080.22;5026506;28;20444;-54
2022/12/25 10:58:26;;;;;;;7.33;4.77;;;;;;;11.35;100.00;100084.81;5028071;28;21062;-55
2022/12/25 11:00:59;;;;;;;5.27;3.37;;;;;;;11.40;100.00;100090.00;5025540;28;20458;-54
2022/12/25 11:03:30;;;;;;;3.60;2.77;;;;;;;11.38;100.00;100086.53;5021731;28;20454;-54
2022/12/25 11:05:56;;;;;;;5.10;3.70;;;;;;;11.42;100.00;100083.72;5022650;28;20445;-54
2022/12/25 11:08:26;;;;;;;4.30;2.60;;;;;;;11.41;100.00;100079.31;5032358;28;20509;-54
2022/12/25 11:10:57;;;;;;;5.80;4.57;;;;;;;11.43;100.00;100079.25;5021327;28;20455;-54
2022/12/25 11:13:26;;;;;;;6.60;2.20;;;;;;;11.45;100.00;100069.41;5022008;28;20961;-54
2022/12/25 11:16:11;;;;;;;4.60;3.70;;;;;;;11.41;100.00;100078.44;5023804;28;20447;-54
2022/12/25 11:18:47;;;;;;;3.70;3.30;;;;;;;11.40;100.00;100084.69;5024204;28;20999;-54
2022/12/25 11:21:20;;;;;;;4.90;3.10;;;;;;;11.42;100.00;100072.19;4999698;28;20934;-54
2022/12/25 11:23:54;;;;;;;8.23;2.60;;;;;;;11.37;100.00;100056.38;5009504;28;20444;-53
2022/12/25 11:26:20;;;;;;;7.53;2.37;;;;;;;11.39;100.00;100046.56;5020909;28;20873;-52
2022/12/25 11:28:51;;;;;;;4.60;3.10;;;;;;;11.47;100.00;100040.94;5021294;28;20502;-53
2022/12/25 11:31:28;;;;;;;1.53;1.30;;;;;;;11.64;100.00;100042.97;5021023;28;20444;-53
2022/12/25 11:33:55;;;;;;;1.30;1.20;;;;;;;11.64;100.00;100019.88;5020485;28;20866;-53
2022/12/25 11:36:33;;;;;;;1.63;1.47;;;;;;;11.57;100.00;100002.44;5026329;28;20965;-52
2022/12/25 11:39:18;;;;;;;7.70;2.20;;;;;;;11.49;100.00;99978.75;5039424;28;20490;-52
2022/12/25 11:41:45;;;;;;;2.23;1.40;;;;;;;11.55;100.00;99967.00;5026663;28;20455;-53
2022/12/25 11:44:26;;;;;;;2.30;1.70;;;;;;;11.59;100.00;99976.63;5020618;28;20558;-53
2022/12/25 11:46:54;;;;;;;1.70;1.23;;;;;;;11.65;100.00;99979.06;5020798;28;20444;-53
2022/12/25 11:49:22;;;;;;;2.70;1.57;;;;;;;11.57;100.00;99982.00;5025425;28;20475;-53
2022/12/25 11:51:52;;;;;;;5.30;1.27;;;;;;;11.83;100.00;99999.69;5027206;28;20961;-53
2022/12/25 11:54:37;;;;;;;6.43;1.20;;;;;;;12.00;100.00;99990.16;5023548;28;20547;-52
2022/12/25 11:57:05;;;;;;;2.20;2.00;;;;;;;12.11;100.00;99988.81;5020576;28;20942;-53
2022/12/25 11:59:39;;;;;;;7.10;1.70;;;;;;;12.11;100.00;99985.28;5021492;28;20468;-53
2022/12/25 12:02:09;;;;;;;10.40;2.30;;;;;;;12.15;100.00;99981.56;5021066;28;20521;-53
2022/12/25 12:04:39;;;;;;;2.70;2.50;;;;;;;12.43;100.00;99979.50;5019810;28;20456;-53
2022/12/25 12:07:23;;;;;;;2.10;2.00;;;;;;;12.79;100.00;99968.25;5022030;28;20455;-53
2022/12/25 12:10:06;;;;;;;4.40;2.93;;;;;;;12.62;100.00;99976.97;5030231;28;20550;-53
2022/12/25 12:12:46;;;;;;;5.63;2.37;;;;;;;12.68;100.00;99973.16;5026024;28;20443;-54
2022/12/25 12:15:28;;;;;;;3.30;3.10;;;;;;;12.67;100.00;99974.97;5033304;28;20439;-54
2022/12/25 12:18:21;;;;;;;2.20;2.07;;;;;;;13.04;100.00;99976.06;5029322;28;20795;-56
2022/12/25 12:21:06;;;;;;;5.50;2.00;;;;;;;13.19;100.00;99963.88;5026342;28;20443;-53
2022/12/25 12:23:47;;;;;;;2.23;2.13;;;;;;;12.88;100.00;99942.94;5023385;28;20487;-53
2022/12/25 12:26:28;;;;;;;2.47;2.37;;;;;;;12.60;100.00;99944.13;5026297;28;20448;-54
2022/12/25 12:29:00;;;;;;;1.80;1.70;;;;;;;12.73;100.00;99949.81;5026631;28;20499;-53
2022/12/25 12:31:47;;;;;;;5.20;1.30;;;;;;;12.58;100.00;99959.34;5021573;28;20458;-53
2022/12/25 12:34:29;;;;;;;1.77;1.37;;;;;;;12.70;100.00;99944.63;5019636;28;20945;-54
2022/12/25 12:37:16;;;;;;;1.20;1.20;;;;;;;12.77;100.00;99940.78;5023522;28;20459;-53
2022/12/25 12:39:52;;;;;;;2.30;2.00;;;;;;;12.97;100.00;99945.22;5022293;28;20546;-54
2022/12/25 12:42:24;;;;;;;1.23;1.17;;;;;;;13.43;100.00;99940.53;5026293;28;20471;-53
2022/12/25 12:44:54;;;;;;;1.70;1.37;;;;;;;13.41;100.00;99947.72;5024852;28;20539;-54
2022/12/25 12:47:45;;;;;;;2.30;2.10;;;;;;;13.59;100.00;99946.91;5019416;28;20448;-54
2022/12/25 12:50:27;;;;;;;10.80;1.37;;;;;;;13.27;100.00;99941.22;5019564;28;20496;-53
2022/12/25 12:52:54;;;;;;;2.87;0.70;;;;;;;13.21;100.00;99938.84;5021702;28;20938;-54
2022/12/25 12:55:32;;;;;;;0.90;0.80;;;;;;;13.17;100.00;99931.88;5026003;28;20448;-53
2022/12/25 12:58:04;;;;;;;6.63;0.73;;;;;;;13.13;100.00;99921.41;5025694;28;20866;-53
2022/12/25 13:00:55;;;;;;;0.70;0.70;;;;;;;13.16;100.00;99924.81;5025634;28;20522;-53
2022/12/25 13:03:33;;;;;;;0.90;0.87;;;;;;;13.07;100.00;99930.56;5025998;28;20539;-53
2022/12/25 13:06:25;;;;;;;0.63;0.63;;;;;;;13.03;100.00;99923.63;5024908;28;20538;-53
2022/12/25 13:09:17;;;;;;;8.43;2.20;;;;;;;12.97;100.00;99923.88;5032117;28;20956;-53
2022/12/25 13:11:44;;;;;;;3.30;1.23;;;;;;;12.92;100.00;99925.91;4988401;28;20427;-53
2022/12/25 13:14:19;;;;;;;0.80;0.53;;;;;;;13.00;100.00;99927.28;5025177;28;20430;-53
2022/12/25 13:16:48;;;;;;;1.80;1.70;;;;;;;12.97;100.00;99915.88;5020299;28;20450;-53
2022/12/25 13:19:21;;;;;;;1.30;1.20;;;;;;;12.97;100.00;99899.88;5018774;28;20532;-53